Time;durP1;ratioP1;P1;durP2;ratioP2;P2;SDS_P1;SDS_P2;PMS_P1;PMS_P2;Temp;Humidity;BMP_temperature;BMP_pressure;BME280_temperature;BME280_humidity;BME280_pressure;Samples;Min_cycle;Max_cycle;Signal;HPM_P1;HPM_P2
2022/10/12 00:00:17;;;;;;;19.30;9.10;;;;;;;8.78;70.80;100083.64;106859;1300;22249;-65
2022/10/12 00:02:44;;;;;;;;;;;;;;;8.77;70.89;100083.88;106966;1300;23302;-66
2022/10/12 00:05:11;;;;;;;19.90;8.50;;;;;;;8.74;71.05;100084.66;106815;1300;126314;-65
2022/10/12 00:07:38;;;;;;;16.10;9.70;;;;;;;8.68;71.28;100080.92;106932;1300;22090;-58
2022/10/12 00:10:06;;;;;;;16.50;9.00;;;;;;;8.69;71.36;100085.44;106663;1301;139172;-59
2022/10/12 00:12:33;;;;;;;20.90;11.40;;;;;;;8.68;71.64;100085.52;106961;1299;22993;-60
2022/10/12 00:14:59;;;;;;;22.40;12.30;;;;;;;8.66;71.67;100083.64;106843;1300;22121;-60
2022/10/12 00:17:26;;;;;;;19.80;11.80;;;;;;;8.65;71.79;100087.52;106779;1300;138458;-60
2022/10/12 00:19:53;;;;;;;19.80;11.80;;;;;;;8.62;72.08;100089.31;106916;1300;22195;-59
2022/10/12 00:22:19;;;;;;;16.10;9.50;;;;;;;8.59;72.21;100091.98;106721;1300;138189;-60
2022/10/12 00:24:46;;;;;;;14.40;10.20;;;;;;;8.55;72.17;100089.36;106887;1288;23429;-60
2022/10/12 00:27:13;;;;;;;18.60;9.80;;;;;;;8.50;72.19;100094.63;106626;1302;138532;-60
2022/10/12 00:29:40;;;;;;;15.30;8.60;;;;;;;8.43;72.34;100093.75;106828;1302;22115;-60
2022/10/12 00:32:06;;;;;;;;;;;;;;;8.36;72.53;100095.65;106803;1300;23333;-60
2022/10/12 00:34:33;;;;;;;18.80;10.20;;;;;;;8.28;72.66;100096.59;106720;1294;124162;-58
2022/10/12 00:37:00;;;;;;;;;;;;;;;8.18;72.85;100096.06;106864;1300;22416;-64
2022/10/12 00:39:26;;;;;;;20.50;10.40;;;;;;;8.09;73.02;100098.17;106714;1300;124157;-64
2022/10/12 00:41:53;;;;;;;20.40;10.90;;;;;;;7.99;73.21;100096.03;106830;1300;23204;-64
2022/10/12 00:44:34;;;;;;;20.80;10.90;;;;;;;7.91;73.36;100097.85;106845;1300;22199;-63
2022/10/12 00:47:04;;;;;;;22.50;13.10;;;;;;;7.83;73.59;100100.48;106584;1300;139493;-64
2022/10/12 00:49:33;;;;;;;20.20;11.80;;;;;;;7.78;73.77;100105.02;106859;1300;22976;-64
2022/10/12 00:52:01;;;;;;;17.70;10.90;;;;;;;7.74;73.85;100100.67;106767;1300;140111;-64
2022/10/12 00:54:33;;;;;;;22.10;11.90;;;;;;;7.72;73.92;100101.78;106796;1302;22181;-64
2022/10/12 00:57:01;;;;;;;21.30;10.60;;;;;;;7.70;74.00;100097.75;106901;1299;23516;-67
2022/10/12 00:59:31;;;;;;;18.90;9.40;;;;;;;7.66;74.16;100092.70;106732;1293;140079;-67
2022/10/12 01:01:58;;;;;;;19.10;10.40;;;;;;;7.67;74.22;100095.52;106773;1301;22378;-67
2022/10/12 01:04:24;;;;;;;23.90;11.30;;;;;;;7.67;74.32;100099.14;106893;1285;139754;-68
2022/10/12 01:06:51;;;;;;;16.60;9.60;;;;;;;7.66;74.32;100097.15;106807;1300;22258;-61
2022/10/12 01:09:18;;;;;;;16.40;9.70;;;;;;;7.65;74.39;100097.13;106702;1295;139374;-61
2022/10/12 01:11:45;;;;;;;19.50;9.40;;;;;;;7.64;74.37;100098.20;106785;1300;22677;-61
2022/10/12 01:14:12;;;;;;;21.40;11.00;;;;;;;7.61;74.41;100103.48;106861;1299;22112;-62
2022/10/12 01:17:03;;;;;;;18.50;9.90;;;;;;;7.57;74.38;100102.10;106761;1300;138704;-62
2022/10/12 01:19:48;;;;;;;18.50;11.10;;;;;;;7.52;74.76;100102.48;106822;1278;22131;-61
2022/10/12 01:22:21;;;;;;;17.80;10.40;;;;;;;7.47;75.07;100101.45;106768;1300;137964;-62
2022/10/12 01:24:53;;;;;;;20.80;12.10;;;;;;;7.43;74.94;100100.33;106836;1300;22223;-62
2022/10/12 01:27:22;;;;;;;17.20;10.30;;;;;;;7.36;75.14;100102.63;106589;1302;138088;-62
2022/10/12 01:30:08;;;;;;;19.60;11.50;;;;;;;7.35;75.60;100106.40;106874;1300;22180;-61
2022/10/12 01:32:59;;;;;;;21.10;12.30;;;;;;;7.33;75.71;100108.55;106856;1292;22899;-61
2022/10/12 01:35:48;;;;;;;18.40;11.50;;;;;;;7.31;75.98;100113.98;106758;1292;138991;-61
2022/10/12 01:38:49;;;;;;;22.00;11.90;;;;;;;7.31;76.20;100108.44;106823;1295;22135;-61
2022/10/12 01:41:31;;;;;;;17.90;10.50;;;;;;;7.32;76.71;100109.56;106790;1292;139409;-58
2022/10/12 01:43:58;;;;;;;17.20;10.60;;;;;;;7.33;76.78;100111.80;106907;1300;23324;-58
2022/10/12 01:46:24;;;;;;;21.10;11.50;;;;;;;7.33;76.80;100120.65;106638;1300;138744;-58
2022/10/12 01:48:59;;;;;;;33.80;21.30;;;;;;;7.33;76.86;100121.57;106878;1300;22247;-58
2022/10/12 01:52:07;;;;;;;20.50;13.30;;;;;;;7.33;77.08;100116.81;106763;1300;139041;-59
2022/10/12 01:54:41;;;;;;;29.30;16.60;;;;;;;7.33;77.22;100117.52;106454;1306;22950;-59
2022/10/12 01:57:17;;;;;;;24.30;13.60;;;;;;;7.32;77.50;100115.32;106422;1306;22181;-58
2022/10/12 01:59:51;;;;;;;20.00;11.80;;;;;;;7.32;77.55;100118.11;106250;1307;22250;-58
2022/10/12 02:02:39;;;;;;;16.60;11.10;;;;;;;7.29;77.42;100124.18;106292;1306;22409;-58
2022/10/12 02:05:06;;;;;;;;;;;;;;;7.25;77.59;100128.80;106347;1306;138991;-58
2022/10/12 02:07:48;;;;;;;33.10;16.80;;;;;;;7.22;77.74;100130.15;106445;1306;22208;-59
2022/10/12 02:10:26;;;;;;;25.90;14.80;;;;;;;7.19;77.93;100133.48;106369;1306;139357;-58
2022/10/12 02:12:53;;;;;;;21.60;11.80;;;;;;;7.17;78.18;100133.59;106451;1306;23476;-58
2022/10/12 02:15:20;;;;;;;;;;;;;;;7.14;78.26;100139.81;106349;1306;138679;-59
2022/10/12 02:17:47;;;;;;;20.50;11.90;;;;;;;7.10;78.12;100141.09;106413;1306;22179;-58
2022/10/12 02:20:15;;;;;;;20.10;12.00;;;;;;;7.05;78.29;100144.55;106501;1306;23350;-58
2022/10/12 02:22:42;;;;;;;18.80;10.50;;;;;;;7.01;78.45;100146.63;106392;1306;139384;-59
2022/10/12 02:25:10;;;;;;;22.40;10.30;;;;;;;6.97;78.66;100146.23;106499;1293;22158;-59
2022/10/12 02:27:38;;;;;;;18.10;11.10;;;;;;;6.94;78.84;100154.79;106255;1303;138653;-60
2022/10/12 02:30:06;;;;;;;20.20;11.20;;;;;;;6.91;78.92;100157.42;106531;1300;22498;-59
2022/10/12 02:32:37;;;;;;;20.30;12.70;;;;;;;6.89;79.04;100159.38;106837;1300;22171;-59
2022/10/12 02:35:08;;;;;;;18.70;11.00;;;;;;;6.87;79.19;100160.93;106697;1300;138236;-60
2022/10/12 02:37:36;;;;;;;20.00;11.50;;;;;;;6.86;79.23;100160.56;106931;1295;22120;-59
2022/10/12 02:40:10;;;;;;;20.60;10.80;;;;;;;6.83;79.62;100160.58;106765;1300;139401;-66
2022/10/12 02:42:38;;;;;;;19.40;10.50;;;;;;;6.81;79.37;100163.42;106783;1300;22133;-66
2022/10/12 02:45:25;;;;;;;19.40;11.50;;;;;;;6.77;79.35;100163.13;106711;1301;139695;-66
2022/10/12 02:47:52;;;;;;;23.30;12.90;;;;;;;6.73;79.67;100164.85;106787;1302;22143;-65
2022/10/12 02:50:19;;;;;;;22.30;13.40;;;;;;;6.72;79.73;100163.90;106784;1303;22151;-64
2022/10/12 02:52:45;;;;;;;;;;;;;;;6.72;80.27;100167.80;106833;1300;139437;-64
2022/10/12 02:55:12;;;;;;;23.30;12.00;;;;;;;6.72;80.39;100164.23;106802;1297;22209;-63
2022/10/12 02:57:39;;;;;;;27.00;15.50;;;;;;;6.72;80.91;100165.02;106736;1300;140032;-63
2022/10/12 03:00:06;;;;;;;31.30;16.70;;;;;;;6.73;81.03;100167.77;106879;1300;22364;-63
2022/10/12 03:02:33;;;;;;;35.10;15.20;;;;;;;6.73;81.09;100171.48;106831;1300;22110;-63
2022/10/12 03:04:59;;;;;;;26.00;15.00;;;;;;;6.74;81.36;100177.94;106796;1300;140240;-63
2022/10/12 03:07:26;;;;;;;21.30;13.10;;;;;;;6.74;81.38;100180.22;106899;1300;22869;-63
2022/10/12 03:09:53;;;;;;;26.80;13.90;;;;;;;6.76;81.57;100181.63;106819;1300;138573;-63
2022/10/12 03:12:20;;;;;;;;;;;;;;;6.77;81.74;100182.75;106920;1300;22345;-66
2022/10/12 03:14:46;;;;;;;19.40;12.20;;;;;;;6.77;82.10;100185.20;106973;1299;22979;-65
2022/10/12 03:17:13;;;;;;;44.40;19.20;;;;;;;6.79;82.47;100186.27;106765;1290;138414;-65
2022/10/12 03:19:40;;;;;;;33.30;16.60;;;;;;;6.81;82.68;100188.50;106937;1300;23052;-66
2022/10/12 03:22:06;;;;;;;;;;;;;;;6.81;83.16;100190.67;106787;1300;138276;-66
2022/10/12 03:24:33;;;;;;;48.60;19.60;;;;;;;6.85;82.98;100197.28;107020;1300;22130;-65
2022/10/12 03:27:00;;;;;;;43.20;19.10;;;;;;;6.86;82.90;100197.90;106975;1300;22166;-66
2022/10/12 03:29:26;;;;;;;38.30;17.80;;;;;;;6.86;82.70;100197.07;106867;1300;138503;-63
2022/10/12 03:31:53;;;;;;;;;;;;;;;6.84;82.66;100195.08;106985;1300;22353;-66
2022/10/12 03:34:20;;;;;;;25.50;12.90;;;;;;;6.82;82.38;100195.21;106650;1297;124501;-66
2022/10/12 03:36:46;;;;;;;27.00;14.10;;;;;;;6.79;82.07;100193.96;106679;1294;22488;-66
2022/10/12 03:39:13;;;;;;;19.60;12.40;;;;;;;6.76;82.28;100194.68;103828;1289;139535;-68
2022/10/12 03:41:40;;;;;;;;;;;;;;;6.71;82.05;100198.27;103867;1292;25296;-58
2022/10/12 03:44:06;;;;;;;24.00;12.80;;;;;;;6.68;82.00;100197.65;103864;1292;22620;-57
2022/10/12 03:46:33;;;;;;;26.50;15.00;;;;;;;6.65;82.00;100199.97;103669;1292;138274;-58
2022/10/12 03:49:00;;;;;;;26.90;15.20;;;;;;;6.61;82.17;100197.21;103960;1279;23810;-58
2022/10/12 03:51:26;;;;;;;;;;;;;;;6.60;82.56;100199.25;103732;1301;138978;-58
2022/10/12 03:53:53;;;;;;;28.90;16.00;;;;;;;6.59;82.86;100198.09;103917;1307;25394;-58
2022/10/12 03:56:20;;;;;;;24.30;13.00;;;;;;;6.58;83.17;100200.88;103948;1280;22568;-58
2022/10/12 03:58:46;;;;;;;21.30;14.10;;;;;;;6.58;83.30;100200.80;103887;1307;138537;-58
2022/10/12 04:01:13;;;;;;;28.80;14.90;;;;;;;6.57;83.43;100198.05;103925;1307;26138;-58
2022/10/12 04:03:40;;;;;;;;;;;;;;;6.56;83.31;100203.01;103830;1295;139578;-58
2022/10/12 04:06:07;;;;;;;26.90;14.80;;;;;;;6.55;83.52;100204.42;104007;1307;22534;-58
2022/10/12 04:11:23;;;;;;;27.30;16.70;;;;;;;6.54;83.73;100208.52;100930;1340;545031;-57
2022/10/12 04:13:50;;;;;;;35.90;19.30;;;;;;;6.52;83.75;100212.30;102900;1319;22991;-59
2022/10/12 04:16:16;;;;;;;34.50;16.00;;;;;;;6.52;83.88;100207.77;102785;1320;138327;-57
2022/10/12 04:18:43;;;;;;;38.60;19.00;;;;;;;6.52;84.06;100210.77;102885;1307;23024;-57
2022/10/12 04:21:12;;;;;;;41.70;20.50;;;;;;;6.52;84.17;100215.35;103013;1320;22531;-57
2022/10/12 04:23:40;;;;;;;46.70;23.10;;;;;;;6.51;84.39;100214.89;106057;1301;22206;-57
2022/10/12 04:26:06;;;;;;;62.00;30.20;;;;;;;6.50;84.52;100220.97;105425;1302;1294932;-58
2022/10/12 04:28:33;;;;;;;126.20;50.90;;;;;;;6.51;84.59;100218.84;106228;1301;138702;-58
2022/10/12 04:31:00;;;;;;;117.80;44.50;;;;;;;6.52;84.61;100222.93;106151;1310;22135;-58
2022/10/12 04:33:27;;;;;;;138.90;49.80;;;;;;;6.52;84.96;100226.30;106264;1309;138539;-49
2022/10/12 04:35:53;;;;;;;;;;;;;;;6.53;85.08;100227.77;106418;1309;22513;-59
2022/10/12 04:38:20;;;;;;;177.50;61.10;;;;;;;6.54;84.92;100227.38;106891;1300;22136;-58
2022/10/12 04:40:47;;;;;;;158.60;53.30;;;;;;;6.54;85.10;100227.38;106723;1300;138543;-59
2022/10/12 04:43:14;;;;;;;124.00;51.10;;;;;;;6.53;85.02;100232.67;106765;1302;22871;-58
2022/10/12 04:45:41;;;;;;;91.40;40.30;;;;;;;6.53;85.18;100230.01;106746;1301;139077;-58
2022/10/12 04:48:08;;;;;;;60.30;30.60;;;;;;;6.53;85.01;100232.34;106804;1300;22114;-58
2022/10/12 04:50:35;;;;;;;50.50;27.10;;;;;;;6.53;85.24;100239.41;106845;1303;22195;-57
2022/10/12 04:53:01;;;;;;;41.70;24.90;;;;;;;6.53;85.33;100241.05;106766;1300;138670;-58
2022/10/12 04:55:28;;;;;;;35.00;22.50;;;;;;;6.54;85.49;100239.14;106835;1303;23179;-57
2022/10/12 04:57:55;;;;;;;27.50;18.80;;;;;;;6.55;85.51;100243.25;106664;1303;138145;-58
2022/10/12 05:00:21;;;;;;;25.50;17.90;;;;;;;6.57;85.93;100247.49;106860;1303;22124;-57
2022/10/12 05:02:48;;;;;;;20.60;14.40;;;;;;;6.58;86.06;100243.11;106863;1302;22086;-57
2022/10/12 05:05:15;;;;;;;22.80;14.50;;;;;;;6.61;86.46;100248.85;106766;1303;138536;-58
2022/10/12 05:07:41;;;;;;;23.40;13.00;;;;;;;6.64;86.52;100246.33;106823;1303;22102;-58
2022/10/12 05:10:08;;;;;;;17.70;13.00;;;;;;;6.69;86.81;100249.61;106742;1303;139129;-58
2022/10/12 05:12:35;;;;;;;17.20;11.90;;;;;;;6.73;87.14;100252.05;106833;1303;22913;-58
2022/10/12 05:15:03;;;;;;;17.60;11.80;;;;;;;6.78;87.23;100256.81;106865;1303;22095;-58
2022/10/12 05:17:29;;;;;;;22.50;12.80;;;;;;;6.82;87.38;100257.50;106709;1294;138243;-58
2022/10/12 05:19:56;;;;;;;18.90;11.10;;;;;;;6.86;87.77;100264.48;106849;1303;22217;-58
2022/10/12 05:22:23;;;;;;;19.20;12.50;;;;;;;6.86;87.81;100259.46;106719;1303;138135;-57
2022/10/12 05:24:49;;;;;;;20.40;11.30;;;;;;;6.95;87.96;100262.64;106742;1303;22172;-58
2022/10/12 05:27:19;;;;;;;22.10;13.00;;;;;;;7.01;88.34;100265.88;106638;1303;137840;-59
2022/10/12 05:29:46;;;;;;;28.00;14.10;;;;;;;7.05;88.51;100265.05;106771;1303;23540;-59
2022/10/12 05:32:13;;;;;;;26.80;12.90;;;;;;;7.12;88.64;100271.60;106750;1303;22099;-58
2022/10/12 05:34:41;;;;;;;23.00;15.70;;;;;;;7.18;88.75;100269.33;106734;1296;137983;-58
2022/10/12 05:37:08;;;;;;;27.60;17.50;;;;;;;7.24;88.92;100271.08;106761;1289;23120;-58
2022/10/12 05:39:36;;;;;;;;;;;;;;;7.29;88.91;100276.46;106687;1303;139214;-58
2022/10/12 05:42:02;;;;;;;92.60;53.70;;;;;;;7.34;89.02;100276.86;106775;1302;22608;-58
2022/10/12 05:44:29;;;;;;;;;;;;;;;7.39;89.38;100279.40;106788;1303;22410;-58
2022/10/12 05:46:56;;;;;;;119.20;63.20;;;;;;;7.44;89.31;100283.96;106674;1303;124684;-57
2022/10/12 05:49:22;;;;;;;95.50;59.10;;;;;;;7.49;89.54;100286.60;106745;1303;22289;-57
2022/10/12 05:51:49;;;;;;;85.60;47.60;;;;;;;7.53;89.41;100288.69;106688;1303;138478;-57
2022/10/12 05:54:16;;;;;;;;;;;;;;;7.58;89.91;100293.88;106783;1303;22332;-57
2022/10/12 05:56:42;;;;;;;103.40;45.70;;;;;;;7.63;90.04;100297.10;106777;1303;22261;-57
2022/10/12 05:59:10;;;;;;;88.70;48.00;;;;;;;7.66;90.08;100298.98;106676;1303;138716;-58
2022/10/12 06:01:37;;;;;;;111.50;58.60;;;;;;;7.71;90.28;100301.00;106748;1303;24315;-57
2022/10/12 06:04:03;;;;;;;;;;;;;;;7.76;90.45;100302.92;106674;1303;138674;-58
2022/10/12 06:06:31;;;;;;;71.20;44.40;;;;;;;7.81;90.36;100307.46;106752;1303;23365;-57
2022/10/12 06:08:58;;;;;;;93.20;66.10;;;;;;;7.84;90.50;100311.58;106717;1288;23255;-59
2022/10/12 06:11:25;;;;;;;;;;;;;;;7.85;90.36;100314.87;106660;1302;140555;-59
2022/10/12 06:13:53;;;;;;;112.90;85.70;;;;;;;7.88;90.62;100316.81;106767;1287;22201;-58
2022/10/12 06:16:19;;;;;;;131.30;97.20;;;;;;;7.92;90.75;100317.61;106645;1303;140007;-58
2022/10/12 06:18:46;;;;;;;;;;;;;;;7.98;90.77;100315.68;106795;1303;23141;-58
2022/10/12 06:21:13;;;;;;;108.10;81.20;;;;;;;8.03;90.77;100320.27;106793;1303;22303;-57
2022/10/12 06:23:58;;;;;;;81.00;60.10;;;;;;;8.09;90.57;100322.22;106792;1289;22207;-58
2022/10/12 06:26:25;;;;;;;85.50;61.40;;;;;;;8.12;90.57;100322.61;106884;1302;22143;-58
2022/10/12 06:28:52;;;;;;;;;;;;;;;8.17;90.55;100324.34;106691;1301;137944;-59
2022/10/12 06:31:19;;;;;;;93.50;70.60;;;;;;;8.22;90.73;100321.58;106758;1303;22137;-58
2022/10/12 06:33:46;;;;;;;109.30;80.20;;;;;;;8.29;90.69;100326.09;106670;1301;138207;-59
2022/10/12 06:36:13;;;;;;;105.80;72.00;;;;;;;8.35;90.70;100323.27;106707;1303;22185;-58
2022/10/12 06:38:39;;;;;;;75.80;49.80;;;;;;;8.42;90.45;100324.11;106798;1303;22153;-58
2022/10/12 06:41:06;;;;;;;;;;;;;;;8.46;90.04;100328.42;103094;1282;138400;-71
2022/10/12 06:43:33;;;;;;;74.40;46.80;;;;;;;8.49;90.04;100334.30;102252;1289;25439;-72
2022/10/12 06:46:00;;;;;;;;;;;;;;;8.52;89.99;100334.05;102174;1289;138747;-71
2022/10/12 06:48:27;;;;;;;76.10;39.50;;;;;;;8.56;89.70;100337.30;102413;1296;22501;-74
2022/10/12 06:50:57;;;;;;;26.70;18.00;;;;;;;8.58;89.79;100341.00;102275;1294;25378;-72
2022/10/12 06:53:27;;;;;;;;;;;;;;;8.60;89.73;100342.66;105811;1293;139260;-73
2022/10/12 06:55:54;;;;;;;30.10;16.00;;;;;;;8.63;89.57;100342.71;106787;1295;22232;-66
2022/10/12 06:58:20;;;;;;;32.20;14.90;;;;;;;8.68;89.64;100343.35;106687;1303;139943;-70
2022/10/12 07:00:47;;;;;;;18.60;14.40;;;;;;;8.74;89.40;100346.14;106813;1295;22151;-70
2022/10/12 07:03:15;;;;;;;24.70;14.40;;;;;;;8.79;89.18;100342.45;106768;1303;22086;-71
2022/10/12 07:05:42;;;;;;;22.80;15.30;;;;;;;8.85;89.21;100343.79;106773;1303;138018;-71
2022/10/12 07:08:08;;;;;;;;;;;;;;;8.89;88.80;100343.34;106808;1302;22432;-71
2022/10/12 07:10:35;;;;;;;20.30;13.60;;;;;;;8.94;88.65;100348.41;106784;1297;124392;-71
2022/10/12 07:13:03;;;;;;;29.60;17.60;;;;;;;8.98;88.50;100349.75;106770;1303;22119;-64
2022/10/12 07:15:30;;;;;;;27.30;16.80;;;;;;;8.98;88.43;100347.48;106655;1295;138817;-71
2022/10/12 07:17:57;;;;;;;21.00;14.60;;;;;;;9.04;87.93;100352.58;106799;1303;23322;-73
2022/10/12 07:20:23;;;;;;;;;;;;;;;9.07;87.88;100352.00;106797;1295;23034;-71
2022/10/12 07:22:51;;;;;;;26.20;14.80;;;;;;;9.09;87.82;100351.29;106640;1303;124567;-71
2022/10/12 07:25:18;;;;;;;22.20;15.50;;;;;;;9.16;87.93;100354.25;106754;1303;22213;-73
2022/10/12 07:27:48;;;;;;;24.20;15.10;;;;;;;9.21;87.84;100356.88;106677;1303;138367;-71
2022/10/12 07:30:15;;;;;;;28.70;19.40;;;;;;;9.28;87.75;100360.20;106858;1295;22315;-72
2022/10/12 07:32:43;;;;;;;;;;;;;;;9.36;87.68;100356.13;106801;1303;22410;-72
2022/10/12 07:35:10;;;;;;;21.40;16.30;;;;;;;9.44;87.42;100363.26;106679;1303;124609;-71
2022/10/12 07:37:36;;;;;;;;;;;;;;;9.48;86.76;100358.56;106760;1303;23820;-71
2022/10/12 07:40:04;;;;;;;24.60;14.30;;;;;;;9.53;86.75;100361.66;106712;1281;124647;-70
2022/10/12 07:42:31;;;;;;;25.10;14.20;;;;;;;9.58;86.41;100358.96;106789;1303;22193;-72
2022/10/12 07:44:57;;;;;;;21.50;13.30;;;;;;;9.63;85.88;100361.34;106746;1303;22271;-73
2022/10/12 07:47:24;;;;;;;22.80;13.60;;;;;;;9.68;85.63;100360.03;106679;1303;138522;-73
2022/10/12 07:49:51;;;;;;;;;;;;;;;9.73;85.50;100359.88;107024;1299;22323;-73
2022/10/12 07:52:17;;;;;;;21.60;12.80;;;;;;;9.77;85.30;100356.55;106932;1300;127286;-72
2022/10/12 07:54:44;;;;;;;;;;;;;;;9.86;84.95;100358.89;107030;1300;22377;-72
2022/10/12 07:57:11;;;;;;;17.80;12.50;;;;;;;9.91;84.72;100354.53;107147;1300;22130;-72
2022/10/12 07:59:38;;;;;;;16.90;12.20;;;;;;;9.99;84.38;100358.30;106892;1300;22192;-70
2022/10/12 08:02:04;;;;;;;18.20;11.40;;;;;;;10.06;83.97;100356.27;106996;1298;22999;-70
2022/10/12 08:04:31;;;;;;;147.10;88.10;;;;;;;10.13;84.07;100349.57;106910;1300;138676;-66
2022/10/12 08:06:58;;;;;;;;;;;;;;;10.26;83.93;100349.59;107162;1300;22396;-71
2022/10/12 08:09:25;;;;;;;31.30;18.30;;;;;;;10.33;83.76;100343.15;107012;1291;22305;-73
2022/10/12 08:11:51;;;;;;;;;;;;;;;10.49;83.28;100351.89;106914;1299;139836;-71
2022/10/12 08:14:18;;;;;;;17.60;11.10;;;;;;;10.59;82.85;100353.36;107001;1300;23045;-71
2022/10/12 08:16:45;;;;;;;;;;;;;;;10.68;81.87;100352.86;106827;1300;139073;-71
2022/10/12 08:19:12;;;;;;;18.50;10.70;;;;;;;10.77;81.27;100353.87;107013;1300;23419;-72
2022/10/12 08:21:40;;;;;;;17.40;9.50;;;;;;;10.85;81.25;100354.00;106878;1300;139153;-71
2022/10/12 08:24:07;;;;;;;15.50;8.80;;;;;;;10.92;80.92;100353.39;107012;1299;23201;-72
2022/10/12 08:26:35;;;;;;;13.00;9.90;;;;;;;11.05;80.59;100354.59;107040;1300;22191;-71
2022/10/12 08:29:02;;;;;;;15.20;9.90;;;;;;;11.14;80.14;100351.78;106891;1300;139398;-71
2022/10/12 08:31:29;;;;;;;16.20;9.60;;;;;;;11.25;79.72;100353.42;107094;1300;22382;-71
2022/10/12 08:33:56;;;;;;;;;;;;;;;11.34;78.94;100355.52;106886;1299;139220;-71
2022/10/12 08:36:23;;;;;;;19.40;7.70;;;;;;;11.39;78.41;100348.84;106973;1300;22865;-71
2022/10/12 08:38:52;;;;;;;13.30;8.30;;;;;;;11.48;77.95;100353.16;106964;1297;22240;-71
2022/10/12 08:41:47;;;;;;;13.30;7.20;;;;;;;11.54;77.30;100351.10;106978;1284;139423;-70
2022/10/12 08:44:51;;;;;;;11.20;7.50;;;;;;;11.58;76.27;100351.71;107020;1300;22621;-72
2022/10/12 08:47:29;;;;;;;12.80;7.60;;;;;;;11.63;76.43;100353.02;106916;1292;140455;-70
2022/10/12 08:49:56;;;;;;;12.80;7.60;;;;;;;11.70;76.34;100348.34;106834;1294;22145;-72
2022/10/12 08:52:27;;;;;;;;;;;;;;;11.77;75.69;100348.88;106866;1282;139197;-71
2022/10/12 08:54:55;;;;;;;13.80;7.50;;;;;;;11.82;75.12;100353.30;106934;1300;23058;-70
2022/10/12 08:57:24;;;;;;;11.10;6.90;;;;;;;11.89;74.38;100353.40;106997;1291;22116;-70
2022/10/12 08:59:51;;;;;;;9.70;6.00;;;;;;;11.96;73.71;100355.83;106786;1287;139534;-68
2022/10/12 09:02:37;;;;;;;;;;;;;;;12.02;72.15;100359.70;107172;1292;22390;-69
2022/10/12 09:05:08;;;;;;;11.00;5.60;;;;;;;12.09;71.14;100357.91;106920;1300;124195;-69
2022/10/12 09:07:45;;;;;;;20.70;6.30;;;;;;;12.13;70.75;100357.26;106861;1300;23254;-70
2022/10/12 09:10:26;;;;;;;9.80;5.60;;;;;;;12.18;70.78;100352.70;106820;1300;138443;-70
2022/10/12 09:12:59;;;;;;;13.70;6.50;;;;;;;12.25;70.92;100351.45;106971;1300;22123;-70
2022/10/12 09:15:31;;;;;;;15.80;8.20;;;;;;;12.31;70.73;100351.05;106889;1292;23348;-70
2022/10/12 09:17:59;;;;;;;17.40;7.10;;;;;;;12.36;70.13;100344.11;106745;1300;137871;-70
2022/10/12 09:20:43;;;;;;;9.80;5.80;;;;;;;12.41;69.62;100342.52;106974;1299;22112;-74
2022/10/12 09:23:26;;;;;;;24.00;9.60;;;;;;;12.47;68.42;100345.77;106816;1300;138286;-72
2022/10/12 09:25:56;;;;;;;23.00;8.10;;;;;;;12.51;68.61;100345.75;107010;1300;22216;-70
2022/10/12 09:28:38;;;;;;;33.80;13.60;;;;;;;12.56;68.50;100345.05;106813;1300;138507;-70
2022/10/12 09:31:08;;;;;;;16.20;5.80;;;;;;;12.63;67.70;100345.80;106982;1300;22931;-70
2022/10/12 09:33:40;;;;;;;9.00;4.30;;;;;;;12.67;66.76;100346.04;107015;1300;22131;-68
2022/10/12 09:36:08;;;;;;;10.10;4.10;;;;;;;12.72;65.97;100341.34;106896;1277;23039;-69
2022/10/12 09:38:37;;;;;;;9.50;4.50;;;;;;;12.77;65.78;100342.02;106870;1300;23006;-69
2022/10/12 09:41:03;;;;;;;8.60;4.10;;;;;;;12.84;65.51;100345.83;107009;1298;137737;-74
2022/10/12 09:43:30;;;;;;;7.20;3.60;;;;;;;12.89;64.59;100343.77;106985;1300;23023;-73
2022/10/12 09:45:58;;;;;;;11.30;4.00;;;;;;;12.94;64.21;100344.23;106861;1300;138322;-73
2022/10/12 09:48:25;;;;;;;36.20;14.90;;;;;;;12.99;63.74;100344.66;106918;1300;22200;-74
2022/10/12 09:51:00;;;;;;;39.50;15.00;;;;;;;13.04;63.48;100343.73;107049;1299;22189;-74
2022/10/12 09:53:35;;;;;;;50.90;13.90;;;;;;;13.07;63.20;100344.73;106858;1300;138779;-74
2022/10/12 09:56:03;;;;;;;33.70;12.90;;;;;;;13.09;63.30;100342.57;107003;1300;22125;-74
2022/10/12 09:58:38;;;;;;;47.20;17.90;;;;;;;13.14;63.11;100340.11;106910;1295;139682;-74
2022/10/12 10:01:24;;;;;;;48.00;14.40;;;;;;;13.21;62.14;100335.48;106843;1300;23118;-75
2022/10/12 10:04:13;;;;;;;25.30;9.60;;;;;;;13.29;61.08;100336.41;106860;1300;138426;-74
2022/10/12 10:06:42;;;;;;;23.20;9.90;;;;;;;13.38;60.66;100331.45;106975;1294;22174;-73
2022/10/12 10:09:31;;;;;;;17.20;6.10;;;;;;;13.45;60.39;100326.25;106984;1292;22305;-74
2022/10/12 10:12:23;;;;;;;15.40;6.50;;;;;;;13.51;60.19;100325.11;106833;1300;137418;-73
2022/10/12 10:14:50;;;;;;;13.30;5.60;;;;;;;13.56;59.58;100321.61;106796;1294;22225;-73
2022/10/12 10:17:23;;;;;;;19.30;8.60;;;;;;;13.58;59.16;100320.41;106853;1300;139686;-73
2022/10/12 10:19:50;;;;;;;22.00;8.50;;;;;;;13.57;58.75;100318.70;107024;1300;22160;-73
2022/10/12 10:22:18;;;;;;;12.10;4.10;;;;;;;13.55;58.37;100322.27;106902;1300;137694;-73
2022/10/12 10:24:49;;;;;;;11.90;4.10;;;;;;;13.52;57.59;100320.09;107037;1300;22286;-73
2022/10/12 10:27:28;;;;;;;7.50;3.50;;;;;;;13.46;56.42;100322.92;106935;1300;22122;-73
2022/10/12 10:30:14;;;;;;;10.70;2.40;;;;;;;13.41;56.03;100324.96;106920;1300;138076;-77
2022/10/12 10:33:12;;;;;;;7.60;2.10;;;;;;;13.35;55.37;100326.64;107118;1275;22114;-75
2022/10/12 10:35:39;;;;;;;8.80;2.20;;;;;;;13.31;55.20;100322.20;106744;1300;139883;-76
2022/10/12 10:38:08;;;;;;;;;;;;;;;13.30;55.29;100318.24;107038;1300;22336;-77
2022/10/12 10:40:34;;;;;;;22.90;9.10;;;;;;;13.21;55.07;100306.55;103373;1300;124878;-71
2022/10/12 10:43:04;;;;;;;24.00;9.60;;;;;;;13.22;55.71;100304.86;102480;1299;26384;-70
2022/10/12 10:45:51;;;;;;;13.10;5.80;;;;;;;13.30;55.28;100321.80;102563;1307;22472;-70
2022/10/12 10:48:22;;;;;;;8.60;3.40;;;;;;;13.27;54.87;100325.29;102762;1283;22490;-71
2022/10/12 10:51:01;;;;;;;7.40;2.70;;;;;;;13.21;55.01;100326.05;102601;1306;25293;-69
2022/10/12 10:53:45;;;;;;;10.80;3.10;;;;;;;13.16;55.08;100330.23;106886;1299;137970;-70
2022/10/12 10:56:20;;;;;;;7.30;3.20;;;;;;;13.11;55.22;100327.54;107000;1299;22254;-70
2022/10/12 10:58:55;;;;;;;11.30;2.80;;;;;;;13.09;55.67;100325.27;106798;1300;137919;-71
2022/10/12 11:01:54;;;;;;;9.40;2.70;;;;;;;13.08;55.60;100324.82;107018;1300;22132;-69
2022/10/12 11:04:28;;;;;;;8.70;3.50;;;;;;;13.08;55.77;100327.28;106890;1300;138102;-71
2022/10/12 11:06:57;;;;;;;9.10;3.90;;;;;;;13.07;56.16;100322.62;107014;1300;22238;-72
2022/10/12 11:09:31;;;;;;;8.60;3.20;;;;;;;13.11;56.06;100326.34;106853;1300;22106;-71
2022/10/12 11:12:13;;;;;;;12.80;3.20;;;;;;;13.16;55.87;100329.25;106858;1295;138691;-72
2022/10/12 11:14:51;;;;;;;8.90;3.30;;;;;;;13.15;55.61;100328.14;106995;1300;23219;-72
2022/10/12 11:17:23;;;;;;;8.30;3.10;;;;;;;13.11;55.37;100326.99;106732;1300;137224;-72
2022/10/12 11:19:59;;;;;;;9.80;3.50;;;;;;;13.06;55.23;100326.38;106957;1300;22225;-72
2022/10/12 11:22:35;;;;;;;10.20;3.90;;;;;;;13.01;55.18;100326.75;106874;1285;137850;-71
2022/10/12 11:25:13;;;;;;;7.40;3.30;;;;;;;12.99;55.30;100322.45;106898;1300;22137;-71
2022/10/12 11:27:41;;;;;;;21.10;9.60;;;;;;;12.98;55.54;100327.70;106959;1300;22158;-71
2022/10/12 11:30:15;;;;;;;8.80;4.10;;;;;;;12.98;55.50;100328.26;106748;1300;137849;-71
2022/10/12 11:32:46;;;;;;;14.90;8.00;;;;;;;12.97;55.19;100329.05;106998;1300;23112;-72